sensor_id;sensor_type;location;lat;lon;timestamp;P1;durP1;ratioP1;P2;durP2;ratioP2
26622;SDS011;14254;50.968;5.366;2023-04-24T00:00:10;13.70;;;7.72;;
26622;SDS011;14254;50.968;5.366;2023-04-24T00:02:40;21.65;;;9.88;;
26622;SDS011;14254;50.968;5.366;2023-04-24T00:05:06;20.00;;;10.32;;
26622;SDS011;14254;50.968;5.366;2023-04-24T00:07:33;11.23;;;8.20;;
26622;SDS011;14254;50.968;5.366;2023-04-24T00:10:00;27.77;;;12.02;;
26622;SDS011;14254;50.968;5.366;2023-04-24T00:12:25;21.95;;;12.10;;
26622;SDS011;14254;50.968;5.366;2023-04-24T00:14:52;19.80;;;11.40;;
26622;SDS011;14254;50.968;5.366;2023-04-24T00:17:18;19.73;;;11.38;;
26622;SDS011;14254;50.968;5.366;2023-04-24T00:19:46;24.45;;;12.43;;
26622;SDS011;14254;50.968;5.366;2023-04-24T00:22:12;23.02;;;11.55;;
26622;SDS011;14254;50.968;5.366;2023-04-24T00:24:39;21.67;;;12.13;;
26622;SDS011;14254;50.968;5.366;2023-04-24T00:27:05;21.23;;;12.63;;
26622;SDS011;14254;50.968;5.366;2023-04-24T00:29:31;27.13;;;13.05;;
26622;SDS011;14254;50.968;5.366;2023-04-24T00:31:57;27.63;;;12.95;;
26622;SDS011;14254;50.968;5.366;2023-04-24T00:34:22;24.75;;;11.70;;
26622;SDS011;14254;50.968;5.366;2023-04-24T00:36:48;18.10;;;12.23;;
26622;SDS011;14254;50.968;5.366;2023-04-24T00:39:20;25.60;;;12.93;;
26622;SDS011;14254;50.968;5.366;2023-04-24T00:41:46;27.95;;;11.75;;
26622;SDS011;14254;50.968;5.366;2023-04-24T00:44:13;19.98;;;12.02;;
26622;SDS011;14254;50.968;5.366;2023-04-24T00:46:39;22.20;;;13.40;;
26622;SDS011;14254;50.968;5.366;2023-04-24T00:49:06;26.35;;;13.82;;
26622;SDS011;14254;50.968;5.366;2023-04-24T00:51:32;22.40;;;10.80;;
26622;SDS011;14254;50.968;5.366;2023-04-24T00:53:58;28.42;;;14.93;;
26622;SDS011;14254;50.968;5.366;2023-04-24T00:56:25;17.30;;;10.70;;
26622;SDS011;14254;50.968;5.366;2023-04-24T00:58:51;25.83;;;14.65;;
26622;SDS011;14254;50.968;5.366;2023-04-24T01:01:18;22.65;;;15.73;;
26622;SDS011;14254;50.968;5.366;2023-04-24T01:03:45;26.83;;;15.60;;
26622;SDS011;14254;50.968;5.366;2023-04-24T01:06:12;30.65;;;16.20;;
26622;SDS011;14254;50.968;5.366;2023-04-24T01:08:39;23.42;;;14.00;;
26622;SDS011;14254;50.968;5.366;2023-04-24T01:11:06;25.52;;;15.10;;
26622;SDS011;14254;50.968;5.366;2023-04-24T01:13:32;26.50;;;15.30;;
26622;SDS011;14254;50.968;5.366;2023-04-24T01:15:58;28.30;;;14.27;;
26622;SDS011;14254;50.968;5.366;2023-04-24T01:18:25;27.45;;;15.73;;
26622;SDS011;14254;50.968;5.366;2023-04-24T01:20:53;31.95;;;17.58;;
26622;SDS011;14254;50.968;5.366;2023-04-24T01:23:22;31.92;;;16.40;;
26622;SDS011;14254;50.968;5.366;2023-04-24T01:25:48;26.67;;;14.77;;
26622;SDS011;14254;50.968;5.366;2023-04-24T01:28:15;28.17;;;15.15;;
26622;SDS011;14254;50.968;5.366;2023-04-24T01:30:41;27.90;;;16.25;;
26622;SDS011;14254;50.968;5.366;2023-04-24T01:33:07;25.20;;;12.73;;
26622;SDS011;14254;50.968;5.366;2023-04-24T01:35:32;31.50;;;15.65;;
26622;SDS011;14254;50.968;5.366;2023-04-24T01:37:59;34.22;;;16.45;;
26622;SDS011;14254;50.968;5.366;2023-04-24T01:40:25;27.73;;;15.05;;
26622;SDS011;14254;50.968;5.366;2023-04-24T01:42:51;25.15;;;13.55;;
26622;SDS011;14254;50.968;5.366;2023-04-24T01:45:17;25.38;;;14.45;;
26622;SDS011;14254;50.968;5.366;2023-04-24T01:47:43;31.60;;;15.98;;
26622;SDS011;14254;50.968;5.366;2023-04-24T01:50:10;27.10;;;15.57;;
26622;SDS011;14254;50.968;5.366;2023-04-24T01:52:36;29.05;;;15.85;;
26622;SDS011;14254;50.968;5.366;2023-04-24T01:55:02;29.02;;;15.80;;
26622;SDS011;14254;50.968;5.366;2023-04-24T01:57:29;26.42;;;14.63;;
26622;SDS011;14254;50.968;5.366;2023-04-24T01:59:55;34.63;;;16.95;;
26622;SDS011;14254;50.968;5.366;2023-04-24T02:02:22;20.65;;;12.85;;
26622;SDS011;14254;50.968;5.366;2023-04-24T02:04:49;35.72;;;17.35;;
26622;SDS011;14254;50.968;5.366;2023-04-24T02:07:15;29.48;;;14.30;;
26622;SDS011;14254;50.968;5.366;2023-04-24T02:09:41;28.20;;;13.88;;
26622;SDS011;14254;50.968;5.366;2023-04-24T02:12:06;27.52;;;15.30;;
26622;SDS011;14254;50.968;5.366;2023-04-24T02:14:32;32.88;;;15.65;;
26622;SDS011;14254;50.968;5.366;2023-04-24T02:16:58;23.10;;;13.55;;
26622;SDS011;14254;50.968;5.366;2023-04-24T02:19:24;25.15;;;15.43;;
26622;SDS011;14254;50.968;5.366;2023-04-24T02:21:49;31.98;;;15.48;;
26622;SDS011;14254;50.968;5.366;2023-04-24T02:24:15;22.63;;;13.73;;
26622;SDS011;14254;50.968;5.366;2023-04-24T02:26:41;28.17;;;16.45;;
26622;SDS011;14254;50.968;5.366;2023-04-24T02:29:07;27.45;;;15.55;;
26622;SDS011;14254;50.968;5.366;2023-04-24T02:31:32;27.65;;;16.50;;
26622;SDS011;14254;50.968;5.366;2023-04-24T02:33:58;30.38;;;15.25;;
26622;SDS011;14254;50.968;5.366;2023-04-24T02:36:24;30.67;;;16.38;;
26622;SDS011;14254;50.968;5.366;2023-04-24T02:38:50;28.45;;;16.25;;
26622;SDS011;14254;50.968;5.366;2023-04-24T02:41:16;29.70;;;14.93;;
26622;SDS011;14254;50.968;5.366;2023-04-24T02:43:41;20.63;;;12.85;;
26622;SDS011;14254;50.968;5.366;2023-04-24T02:46:07;26.88;;;17.20;;
26622;SDS011;14254;50.968;5.366;2023-04-24T02:48:33;25.17;;;16.35;;
26622;SDS011;14254;50.968;5.366;2023-04-24T02:50:58;23.15;;;14.10;;
26622;SDS011;14254;50.968;5.366;2023-04-24T02:53:24;25.80;;;16.77;;
26622;SDS011;14254;50.968;5.366;2023-04-24T02:55:50;28.48;;;16.83;;
26622;SDS011;14254;50.968;5.366;2023-04-24T02:58:16;27.63;;;16.17;;
26622;SDS011;14254;50.968;5.366;2023-04-24T03:00:42;32.35;;;16.23;;
26622;SDS011;14254;50.968;5.366;2023-04-24T03:03:08;24.33;;;15.90;;
26622;SDS011;14254;50.968;5.366;2023-04-24T03:05:34;25.13;;;15.13;;
26622;SDS011;14254;50.968;5.366;2023-04-24T03:08:00;28.70;;;16.52;;
26622;SDS011;14254;50.968;5.366;2023-04-24T03:10:25;24.63;;;13.80;;
26622;SDS011;14254;50.968;5.366;2023-04-24T03:12:51;24.52;;;15.85;;
26622;SDS011;14254;50.968;5.366;2023-04-24T03:15:17;16.38;;;9.55;;
26622;SDS011;14254;50.968;5.366;2023-04-24T03:17:42;23.40;;;14.68;;
26622;SDS011;14254;50.968;5.366;2023-04-24T03:20:08;29.40;;;16.50;;
26622;SDS011;14254;50.968;5.366;2023-04-24T03:22:34;25.85;;;17.25;;
26622;SDS011;14254;50.968;5.366;2023-04-24T03:25:00;29.45;;;17.50;;
26622;SDS011;14254;50.968;5.366;2023-04-24T03:27:26;31.88;;;18.10;;
26622;SDS011;14254;50.968;5.366;2023-04-24T03:29:52;29.33;;;16.63;;
26622;SDS011;14254;50.968;5.366;2023-04-24T03:32:20;27.00;;;16.45;;
26622;SDS011;14254;50.968;5.366;2023-04-24T03:34:47;26.00;;;15.40;;
26622;SDS011;14254;50.968;5.366;2023-04-24T03:37:13;32.70;;;20.38;;
26622;SDS011;14254;50.968;5.366;2023-04-24T03:39:39;31.25;;;18.35;;
26622;SDS011;14254;50.968;5.366;2023-04-24T03:42:05;27.27;;;15.82;;
26622;SDS011;14254;50.968;5.366;2023-04-24T03:44:30;31.52;;;17.15;;
26622;SDS011;14254;50.968;5.366;2023-04-24T03:46:57;19.65;;;10.68;;
26622;SDS011;14254;50.968;5.366;2023-04-24T03:49:23;33.00;;;17.73;;
26622;SDS011;14254;50.968;5.366;2023-04-24T03:51:49;24.27;;;14.15;;
26622;SDS011;14254;50.968;5.366;2023-04-24T03:54:14;37.42;;;18.15;;
26622;SDS011;14254;50.968;5.366;2023-04-24T03:56:40;31.33;;;16.52;;
26622;SDS011;14254;50.968;5.366;2023-04-24T03:59:06;34.25;;;17.92;;
26622;SDS011;14254;50.968;5.366;2023-04-24T04:01:31;35.42;;;18.98;;
26622;SDS011;14254;50.968;5.366;2023-04-24T04:03:57;34.75;;;19.13;;
26622;SDS011;14254;50.968;5.366;2023-04-24T04:06:23;38.47;;;19.50;;
26622;SDS011;14254;50.968;5.366;2023-04-24T04:08:48;43.78;;;19.70;;
26622;SDS011;14254;50.968;5.366;2023-04-24T04:11:14;32.30;;;16.13;;
26622;SDS011;14254;50.968;5.366;2023-04-24T04:13:40;34.20;;;17.75;;
26622;SDS011;14254;50.968;5.366;2023-04-24T04:16:05;31.77;;;19.40;;
26622;SDS011;14254;50.968;5.366;2023-04-24T04:18:31;32.72;;;14.95;;
26622;SDS011;14254;50.968;5.366;2023-04-24T04:20:57;28.45;;;16.00;;
26622;SDS011;14254;50.968;5.366;2023-04-24T04:23:22;30.30;;;16.88;;
26622;SDS011;14254;50.968;5.366;2023-04-24T04:25:48;36.47;;;18.17;;
26622;SDS011;14254;50.968;5.366;2023-04-24T04:28:14;35.00;;;18.05;;
26622;SDS011;14254;50.968;5.366;2023-04-24T04:30:40;30.27;;;16.55;;
26622;SDS011;14254;50.968;5.366;2023-04-24T04:33:06;37.17;;;14.20;;
26622;SDS011;14254;50.968;5.366;2023-04-24T04:35:33;22.77;;;14.75;;
26622;SDS011;14254;50.968;5.366;2023-04-24T04:37:58;32.13;;;14.55;;
26622;SDS011;14254;50.968;5.366;2023-04-24T04:40:24;22.60;;;12.70;;
26622;SDS011;14254;50.968;5.366;2023-04-24T04:42:51;26.27;;;13.73;;
26622;SDS011;14254;50.968;5.366;2023-04-24T04:45:18;24.63;;;15.65;;
26622;SDS011;14254;50.968;5.366;2023-04-24T04:47:43;30.13;;;17.02;;
26622;SDS011;14254;50.968;5.366;2023-04-24T04:50:09;30.27;;;17.20;;
26622;SDS011;14254;50.968;5.366;2023-04-24T04:52:35;30.40;;;15.50;;
26622;SDS011;14254;50.968;5.366;2023-04-24T04:55:01;30.30;;;15.20;;
26622;SDS011;14254;50.968;5.366;2023-04-24T04:57:27;35.03;;;15.85;;
26622;SDS011;14254;50.968;5.366;2023-04-24T04:59:53;21.45;;;12.00;;
26622;SDS011;14254;50.968;5.366;2023-04-24T05:02:18;26.25;;;13.68;;
26622;SDS011;14254;50.968;5.366;2023-04-24T05:04:44;21.88;;;12.52;;
26622;SDS011;14254;50.968;5.366;2023-04-24T05:07:10;25.63;;;14.32;;
26622;SDS011;14254;50.968;5.366;2023-04-24T05:09:36;22.27;;;13.02;;
26622;SDS011;14254;50.968;5.366;2023-04-24T05:12:02;23.77;;;14.32;;
26622;SDS011;14254;50.968;5.366;2023-04-24T05:14:28;23.83;;;15.13;;
26622;SDS011;14254;50.968;5.366;2023-04-24T05:16:54;19.98;;;13.23;;
26622;SDS011;14254;50.968;5.366;2023-04-24T05:19:19;21.35;;;13.15;;
26622;SDS011;14254;50.968;5.366;2023-04-24T05:21:45;24.48;;;13.73;;
26622;SDS011;14254;50.968;5.366;2023-04-24T05:24:11;25.90;;;13.60;;
26622;SDS011;14254;50.968;5.366;2023-04-24T05:26:36;24.38;;;13.40;;
26622;SDS011;14254;50.968;5.366;2023-04-24T05:29:03;19.10;;;12.23;;
26622;SDS011;14254;50.968;5.366;2023-04-24T05:31:29;20.60;;;11.25;;
26622;SDS011;14254;50.968;5.366;2023-04-24T05:33:54;20.33;;;11.00;;
26622;SDS011;14254;50.968;5.366;2023-04-24T05:36:20;23.27;;;11.27;;
26622;SDS011;14254;50.968;5.366;2023-04-24T05:38:46;19.05;;;11.82;;
26622;SDS011;14254;50.968;5.366;2023-04-24T05:41:11;15.00;;;8.93;;
26622;SDS011;14254;50.968;5.366;2023-04-24T05:43:37;16.60;;;9.52;;
26622;SDS011;14254;50.968;5.366;2023-04-24T05:46:03;15.60;;;10.48;;
26622;SDS011;14254;50.968;5.366;2023-04-24T05:48:28;20.48;;;10.82;;
26622;SDS011;14254;50.968;5.366;2023-04-24T05:50:54;12.18;;;8.57;;
26622;SDS011;14254;50.968;5.366;2023-04-24T05:53:20;7.00;;;4.97;;
26622;SDS011;14254;50.968;5.366;2023-04-24T05:55:46;11.65;;;7.78;;
26622;SDS011;14254;50.968;5.366;2023-04-24T05:58:12;15.82;;;8.10;;
26622;SDS011;14254;50.968;5.366;2023-04-24T06:00:38;14.02;;;8.25;;
26622;SDS011;14254;50.968;5.366;2023-04-24T06:03:07;20.38;;;9.43;;
26622;SDS011;14254;50.968;5.366;2023-04-24T06:05:33;20.80;;;9.57;;
26622;SDS011;14254;50.968;5.366;2023-04-24T06:07:59;20.38;;;12.18;;
26622;SDS011;14254;50.968;5.366;2023-04-24T06:10:25;22.92;;;10.90;;
26622;SDS011;14254;50.968;5.366;2023-04-24T06:12:51;19.83;;;10.63;;
26622;SDS011;14254;50.968;5.366;2023-04-24T06:15:16;21.02;;;10.77;;
26622;SDS011;14254;50.968;5.366;2023-04-24T06:17:42;21.52;;;10.65;;
26622;SDS011;14254;50.968;5.366;2023-04-24T06:20:08;19.60;;;9.43;;
26622;SDS011;14254;50.968;5.366;2023-04-24T06:22:35;19.25;;;10.30;;
26622;SDS011;14254;50.968;5.366;2023-04-24T06:25:01;17.38;;;10.77;;
26622;SDS011;14254;50.968;5.366;2023-04-24T06:27:27;20.77;;;12.25;;
26622;SDS011;14254;50.968;5.366;2023-04-24T06:29:53;20.85;;;10.70;;
26622;SDS011;14254;50.968;5.366;2023-04-24T06:32:23;25.42;;;13.73;;
26622;SDS011;14254;50.968;5.366;2023-04-24T06:34:50;24.27;;;12.10;;
26622;SDS011;14254;50.968;5.366;2023-04-24T06:37:17;25.30;;;12.65;;
26622;SDS011;14254;50.968;5.366;2023-04-24T06:39:44;25.17;;;13.57;;
26622;SDS011;14254;50.968;5.366;2023-04-24T06:42:10;22.17;;;12.20;;
26622;SDS011;14254;50.968;5.366;2023-04-24T06:44:36;24.55;;;13.20;;
26622;SDS011;14254;50.968;5.366;2023-04-24T06:47:06;27.55;;;13.73;;
26622;SDS011;14254;50.968;5.366;2023-04-24T06:49:33;27.55;;;14.25;;
26622;SDS011;14254;50.968;5.366;2023-04-24T06:52:00;22.52;;;12.10;;
26622;SDS011;14254;50.968;5.366;2023-04-24T06:54:25;28.05;;;13.82;;
26622;SDS011;14254;50.968;5.366;2023-04-24T06:56:51;27.55;;;13.25;;
26622;SDS011;14254;50.968;5.366;2023-04-24T06:59:17;22.35;;;12.52;;
26622;SDS011;14254;50.968;5.366;2023-04-24T07:01:43;26.17;;;13.27;;
26622;SDS011;14254;50.968;5.366;2023-04-24T07:04:08;22.48;;;11.95;;
26622;SDS011;14254;50.968;5.366;2023-04-24T07:06:34;26.77;;;13.52;;
26622;SDS011;14254;50.968;5.366;2023-04-24T07:09:01;21.77;;;8.70;;
26622;SDS011;14254;50.968;5.366;2023-04-24T07:11:28;22.10;;;10.68;;
26622;SDS011;14254;50.968;5.366;2023-04-24T07:13:54;24.13;;;13.02;;
26622;SDS011;14254;50.968;5.366;2023-04-24T07:16:20;26.73;;;13.25;;
26622;SDS011;14254;50.968;5.366;2023-04-24T07:18:46;26.30;;;13.63;;
26622;SDS011;14254;50.968;5.366;2023-04-24T07:21:11;30.17;;;15.80;;
26622;SDS011;14254;50.968;5.366;2023-04-24T07:23:37;37.20;;;15.27;;
26622;SDS011;14254;50.968;5.366;2023-04-24T07:26:03;31.67;;;15.55;;
26622;SDS011;14254;50.968;5.366;2023-04-24T07:28:29;31.25;;;16.92;;
26622;SDS011;14254;50.968;5.366;2023-04-24T07:30:57;34.47;;;16.77;;
26622;SDS011;14254;50.968;5.366;2023-04-24T07:33:24;42.30;;;18.42;;
26622;SDS011;14254;50.968;5.366;2023-04-24T07:35:51;37.58;;;17.85;;
26622;SDS011;14254;50.968;5.366;2023-04-24T07:38:17;39.45;;;19.45;;
26622;SDS011;14254;50.968;5.366;2023-04-24T07:40:46;39.75;;;19.02;;
26622;SDS011;14254;50.968;5.366;2023-04-24T07:43:12;38.67;;;20.45;;
26622;SDS011;14254;50.968;5.366;2023-04-24T07:45:37;40.25;;;20.88;;
26622;SDS011;14254;50.968;5.366;2023-04-24T07:48:04;28.60;;;15.77;;
26622;SDS011;14254;50.968;5.366;2023-04-24T07:50:30;39.42;;;18.42;;
26622;SDS011;14254;50.968;5.366;2023-04-24T07:52:56;34.70;;;17.00;;
26622;SDS011;14254;50.968;5.366;2023-04-24T07:55:22;37.42;;;19.73;;
26622;SDS011;14254;50.968;5.366;2023-04-24T07:57:48;34.90;;;18.95;;
26622;SDS011;14254;50.968;5.366;2023-04-24T08:00:14;41.13;;;17.95;;
26622;SDS011;14254;50.968;5.366;2023-04-24T08:02:40;33.63;;;18.67;;
26622;SDS011;14254;50.968;5.366;2023-04-24T08:05:06;33.63;;;16.42;;
26622;SDS011;14254;50.968;5.366;2023-04-24T08:07:32;33.67;;;17.50;;
26622;SDS011;14254;50.968;5.366;2023-04-24T08:09:58;33.08;;;17.10;;
26622;SDS011;14254;50.968;5.366;2023-04-24T08:12:24;32.53;;;17.13;;
26622;SDS011;14254;50.968;5.366;2023-04-24T08:14:50;35.88;;;19.02;;
26622;SDS011;14254;50.968;5.366;2023-04-24T08:17:16;37.15;;;18.25;;
26622;SDS011;14254;50.968;5.366;2023-04-24T08:19:42;38.40;;;19.02;;
26622;SDS011;14254;50.968;5.366;2023-04-24T08:22:12;44.22;;;18.75;;
26622;SDS011;14254;50.968;5.366;2023-04-24T08:24:41;35.65;;;18.77;;
26622;SDS011;14254;50.968;5.366;2023-04-24T08:27:07;34.10;;;15.75;;
26622;SDS011;14254;50.968;5.366;2023-04-24T08:29:33;37.65;;;17.58;;
26622;SDS011;14254;50.968;5.366;2023-04-24T08:31:59;36.80;;;18.20;;
26622;SDS011;14254;50.968;5.366;2023-04-24T08:34:25;34.53;;;15.23;;
26622;SDS011;14254;50.968;5.366;2023-04-24T08:36:50;36.30;;;15.80;;
26622;SDS011;14254;50.968;5.366;2023-04-24T08:39:16;32.38;;;16.35;;
26622;SDS011;14254;50.968;5.366;2023-04-24T08:41:43;27.98;;;15.85;;
26622;SDS011;14254;50.968;5.366;2023-04-24T08:44:10;35.13;;;17.10;;
26622;SDS011;14254;50.968;5.366;2023-04-24T08:46:39;32.55;;;15.57;;
26622;SDS011;14254;50.968;5.366;2023-04-24T08:49:05;30.75;;;15.85;;
26622;SDS011;14254;50.968;5.366;2023-04-24T08:51:31;29.45;;;14.52;;
26622;SDS011;14254;50.968;5.366;2023-04-24T08:53:57;29.90;;;13.63;;
26622;SDS011;14254;50.968;5.366;2023-04-24T08:56:23;29.70;;;13.18;;
26622;SDS011;14254;50.968;5.366;2023-04-24T08:58:53;25.75;;;13.27;;
26622;SDS011;14254;50.968;5.366;2023-04-24T09:01:19;25.95;;;12.65;;
26622;SDS011;14254;50.968;5.366;2023-04-24T09:03:47;19.80;;;11.70;;
26622;SDS011;14254;50.968;5.366;2023-04-24T09:06:14;26.65;;;12.15;;
26622;SDS011;14254;50.968;5.366;2023-04-24T09:08:41;28.08;;;12.35;;
26622;SDS011;14254;50.968;5.366;2023-04-24T09:11:08;29.08;;;9.93;;
26622;SDS011;14254;50.968;5.366;2023-04-24T09:13:36;22.23;;;10.45;;
26622;SDS011;14254;50.968;5.366;2023-04-24T09:16:02;25.40;;;9.35;;
26622;SDS011;14254;50.968;5.366;2023-04-24T09:18:28;20.27;;;8.93;;
26622;SDS011;14254;50.968;5.366;2023-04-24T09:21:04;19.25;;;8.25;;
26622;SDS011;14254;50.968;5.366;2023-04-24T09:23:33;21.08;;;7.18;;
26622;SDS011;14254;50.968;5.366;2023-04-24T09:25:59;17.80;;;5.75;;
26622;SDS011;14254;50.968;5.366;2023-04-24T09:28:28;10.13;;;6.05;;
26622;SDS011;14254;50.968;5.366;2023-04-24T09:31:02;12.60;;;4.68;;
26622;SDS011;14254;50.968;5.366;2023-04-24T09:33:33;14.65;;;5.13;;
26622;SDS011;14254;50.968;5.366;2023-04-24T09:35:59;13.38;;;5.70;;
26622;SDS011;14254;50.968;5.366;2023-04-24T09:38:32;18.50;;;6.63;;
26622;SDS011;14254;50.968;5.366;2023-04-24T09:40:59;25.08;;;7.40;;
26622;SDS011;14254;50.968;5.366;2023-04-24T09:43:30;18.83;;;7.68;;
26622;SDS011;14254;50.968;5.366;2023-04-24T09:45:58;17.20;;;6.80;;
26622;SDS011;14254;50.968;5.366;2023-04-24T09:48:34;15.23;;;7.03;;
26622;SDS011;14254;50.968;5.366;2023-04-24T09:51:01;19.45;;;8.15;;
26622;SDS011;14254;50.968;5.366;2023-04-24T09:53:32;21.02;;;8.90;;
26622;SDS011;14254;50.968;5.366;2023-04-24T09:56:01;19.20;;;7.88;;
26622;SDS011;14254;50.968;5.366;2023-04-24T09:58:31;25.08;;;7.88;;
26622;SDS011;14254;50.968;5.366;2023-04-24T10:00:57;18.75;;;6.95;;
26622;SDS011;14254;50.968;5.366;2023-04-24T10:03:26;17.33;;;6.25;;
26622;SDS011;14254;50.968;5.366;2023-04-24T10:05:54;21.38;;;6.40;;
26622;SDS011;14254;50.968;5.366;2023-04-24T10:08:24;18.55;;;7.10;;
26622;SDS011;14254;50.968;5.366;2023-04-24T10:10:51;19.85;;;6.97;;
26622;SDS011;14254;50.968;5.366;2023-04-24T10:13:18;19.38;;;6.82;;
26622;SDS011;14254;50.968;5.366;2023-04-24T10:15:44;13.88;;;7.32;;
26622;SDS011;14254;50.968;5.366;2023-04-24T10:18:11;21.08;;;9.07;;
26622;SDS011;14254;50.968;5.366;2023-04-24T10:20:38;17.83;;;7.68;;
26622;SDS011;14254;50.968;5.366;2023-04-24T10:23:04;18.70;;;6.78;;
26622;SDS011;14254;50.968;5.366;2023-04-24T10:25:31;18.95;;;6.65;;
26622;SDS011;14254;50.968;5.366;2023-04-24T10:27:59;13.05;;;6.50;;
26622;SDS011;14254;50.968;5.366;2023-04-24T10:30:29;14.90;;;5.90;;
26622;SDS011;14254;50.968;5.366;2023-04-24T10:33:06;12.90;;;6.05;;
26622;SDS011;14254;50.968;5.366;2023-04-24T10:35:39;15.45;;;6.03;;
26622;SDS011;14254;50.968;5.366;2023-04-24T10:38:08;16.83;;;6.18;;
26622;SDS011;14254;50.968;5.366;2023-04-24T10:40:36;19.05;;;4.07;;
26622;SDS011;14254;50.968;5.366;2023-04-24T10:43:03;14.80;;;5.93;;
26622;SDS011;14254;50.968;5.366;2023-04-24T10:45:36;15.93;;;5.15;;
26622;SDS011;14254;50.968;5.366;2023-04-24T10:48:09;22.13;;;6.72;;
26622;SDS011;14254;50.968;5.366;2023-04-24T10:50:50;15.27;;;4.75;;
26622;SDS011;14254;50.968;5.366;2023-04-24T10:53:18;18.52;;;6.00;;
26622;SDS011;14254;50.968;5.366;2023-04-24T10:55:46;19.38;;;6.13;;
26622;SDS011;14254;50.968;5.366;2023-04-24T10:58:12;15.10;;;5.88;;
26622;SDS011;14254;50.968;5.366;2023-04-24T11:00:38;16.17;;;5.40;;
26622;SDS011;14254;50.968;5.366;2023-04-24T11:05:52;12.30;;;5.32;;
26622;SDS011;14254;50.968;5.366;2023-04-24T11:08:22;16.60;;;6.57;;
26622;SDS011;14254;50.968;5.366;2023-04-24T11:10:56;19.33;;;6.97;;
26622;SDS011;14254;50.968;5.366;2023-04-24T11:19:07;14.05;;;7.00;;
26622;SDS011;14254;50.968;5.366;2023-04-24T11:22:04;22.10;;;8.02;;
26622;SDS011;14254;50.968;5.366;2023-04-24T11:27:19;17.30;;;6.40;;
26622;SDS011;14254;50.968;5.366;2023-04-24T11:34:58;20.17;;;6.30;;
26622;SDS011;14254;50.968;5.366;2023-04-24T11:37:27;18.05;;;7.03;;
26622;SDS011;14254;50.968;5.366;2023-04-24T11:39:56;17.42;;;7.03;;
26622;SDS011;14254;50.968;5.366;2023-04-24T11:42:23;16.73;;;8.30;;
26622;SDS011;14254;50.968;5.366;2023-04-24T11:44:51;17.52;;;6.70;;
26622;SDS011;14254;50.968;5.366;2023-04-24T11:47:18;14.00;;;5.57;;
26622;SDS011;14254;50.968;5.366;2023-04-24T11:49:44;8.00;;;4.85;;
26622;SDS011;14254;50.968;5.366;2023-04-24T11:52:09;12.57;;;4.85;;
26622;SDS011;14254;50.968;5.366;2023-04-24T11:54:36;9.25;;;4.60;;
26622;SDS011;14254;50.968;5.366;2023-04-24T11:57:05;10.93;;;5.55;;
26622;SDS011;14254;50.968;5.366;2023-04-24T11:59:35;11.52;;;5.72;;
26622;SDS011;14254;50.968;5.366;2023-04-24T12:02:02;14.07;;;6.72;;
26622;SDS011;14254;50.968;5.366;2023-04-24T12:04:37;15.52;;;6.20;;
26622;SDS011;14254;50.968;5.366;2023-04-24T12:07:06;13.73;;;6.10;;
26622;SDS011;14254;50.968;5.366;2023-04-24T12:09:40;12.32;;;5.68;;
26622;SDS011;14254;50.968;5.366;2023-04-24T12:12:13;12.48;;;6.25;;
26622;SDS011;14254;50.968;5.366;2023-04-24T12:14:50;9.75;;;5.22;;
26622;SDS011;14254;50.968;5.366;2023-04-24T12:17:23;12.77;;;5.07;;
26622;SDS011;14254;50.968;5.366;2023-04-24T12:19:57;13.40;;;6.35;;
26622;SDS011;14254;50.968;5.366;2023-04-24T12:25:22;9.85;;;5.03;;
26622;SDS011;14254;50.968;5.366;2023-04-24T12:28:08;10.68;;;5.25;;
26622;SDS011;14254;50.968;5.366;2023-04-24T12:30:40;11.45;;;5.50;;
26622;SDS011;14254;50.968;5.366;2023-04-24T12:33:09;11.48;;;6.28;;
26622;SDS011;14254;50.968;5.366;2023-04-24T12:35:35;10.32;;;6.10;;
26622;SDS011;14254;50.968;5.366;2023-04-24T12:38:08;12.73;;;5.95;;
26622;SDS011;14254;50.968;5.366;2023-04-24T12:40:35;10.65;;;5.25;;
26622;SDS011;14254;50.968;5.366;2023-04-24T12:43:01;13.88;;;5.53;;
26622;SDS011;14254;50.968;5.366;2023-04-24T12:45:37;9.48;;;5.30;;
26622;SDS011;14254;50.968;5.366;2023-04-24T12:48:03;7.70;;;5.75;;
26622;SDS011;14254;50.968;5.366;2023-04-24T12:50:28;8.23;;;4.95;;
26622;SDS011;14254;50.968;5.366;2023-04-24T12:52:54;11.93;;;4.93;;
26622;SDS011;14254;50.968;5.366;2023-04-24T12:55:20;11.15;;;4.20;;
26622;SDS011;14254;50.968;5.366;2023-04-24T12:57:45;10.07;;;4.28;;
26622;SDS011;14254;50.968;5.366;2023-04-24T13:00:11;9.65;;;4.75;;
26622;SDS011;14254;50.968;5.366;2023-04-24T13:02:37;10.70;;;4.35;;
26622;SDS011;14254;50.968;5.366;2023-04-24T13:05:03;10.48;;;4.50;;
26622;SDS011;14254;50.968;5.366;2023-04-24T13:07:30;10.32;;;5.15;;
26622;SDS011;14254;50.968;5.366;2023-04-24T13:09:56;10.82;;;4.75;;
26622;SDS011;14254;50.968;5.366;2023-04-24T13:12:24;8.70;;;3.67;;
26622;SDS011;14254;50.968;5.366;2023-04-24T13:14:51;8.77;;;4.43;;
26622;SDS011;14254;50.968;5.366;2023-04-24T13:17:17;10.82;;;5.13;;
26622;SDS011;14254;50.968;5.366;2023-04-24T13:19:43;11.55;;;4.03;;
26622;SDS011;14254;50.968;5.366;2023-04-24T13:22:10;6.78;;;4.25;;
26622;SDS011;14254;50.968;5.366;2023-04-24T13:24:37;7.75;;;4.68;;
26622;SDS011;14254;50.968;5.366;2023-04-24T13:27:04;10.93;;;5.15;;
26622;SDS011;14254;50.968;5.366;2023-04-24T13:29:30;8.60;;;4.00;;
26622;SDS011;14254;50.968;5.366;2023-04-24T13:31:56;9.77;;;4.38;;
26622;SDS011;14254;50.968;5.366;2023-04-24T13:34:25;6.13;;;4.22;;
26622;SDS011;14254;50.968;5.366;2023-04-24T13:36:52;9.10;;;4.00;;
26622;SDS011;14254;50.968;5.366;2023-04-24T13:39:19;9.23;;;4.78;;
26622;SDS011;14254;50.968;5.366;2023-04-24T13:41:45;9.00;;;3.70;;
26622;SDS011;14254;50.968;5.366;2023-04-24T13:44:13;13.60;;;4.95;;
26622;SDS011;14254;50.968;5.366;2023-04-24T13:46:39;9.80;;;4.47;;
26622;SDS011;14254;50.968;5.366;2023-04-24T13:49:05;13.75;;;4.47;;
26622;SDS011;14254;50.968;5.366;2023-04-24T13:51:30;7.03;;;4.55;;
26622;SDS011;14254;50.968;5.366;2023-04-24T13:53:57;7.10;;;3.78;;
26622;SDS011;14254;50.968;5.366;2023-04-24T13:56:23;6.68;;;3.47;;
26622;SDS011;14254;50.968;5.366;2023-04-24T13:58:48;7.68;;;3.67;;
26622;SDS011;14254;50.968;5.366;2023-04-24T14:01:14;9.93;;;4.40;;
26622;SDS011;14254;50.968;5.366;2023-04-24T14:03:41;20.10;;;4.63;;
26622;SDS011;14254;50.968;5.366;2023-04-24T14:06:08;5.85;;;3.20;;
26622;SDS011;14254;50.968;5.366;2023-04-24T14:08:34;10.80;;;3.55;;
26622;SDS011;14254;50.968;5.366;2023-04-24T14:10:59;4.60;;;2.92;;
26622;SDS011;14254;50.968;5.366;2023-04-24T14:13:25;9.68;;;3.55;;
26622;SDS011;14254;50.968;5.366;2023-04-24T14:15:51;7.25;;;3.58;;
26622;SDS011;14254;50.968;5.366;2023-04-24T14:18:17;4.57;;;3.50;;
26622;SDS011;14254;50.968;5.366;2023-04-24T14:20:43;8.52;;;3.53;;
26622;SDS011;14254;50.968;5.366;2023-04-24T14:23:09;7.85;;;4.50;;
26622;SDS011;14254;50.968;5.366;2023-04-24T14:25:35;8.70;;;4.22;;
26622;SDS011;14254;50.968;5.366;2023-04-24T14:28:01;6.35;;;3.72;;
26622;SDS011;14254;50.968;5.366;2023-04-24T14:30:26;6.88;;;3.33;;
26622;SDS011;14254;50.968;5.366;2023-04-24T14:32:52;4.63;;;3.28;;
26622;SDS011;14254;50.968;5.366;2023-04-24T14:35:18;9.52;;;4.28;;
26622;SDS011;14254;50.968;5.366;2023-04-24T14:37:44;4.80;;;3.00;;
26622;SDS011;14254;50.968;5.366;2023-04-24T14:40:10;4.75;;;3.13;;
26622;SDS011;14254;50.968;5.366;2023-04-24T14:42:36;8.25;;;3.60;;
26622;SDS011;14254;50.968;5.366;2023-04-24T14:45:01;7.47;;;3.00;;